createdAt,value
2022-12-08T00:44:37.326Z,0.90
2022-12-08T01:37:20.744Z,1.50
2022-12-08T01:40:04.039Z,1.30
2022-12-08T01:42:50.611Z,1.30
2022-12-08T01:55:04.804Z,1.60
2022-12-08T01:57:46.569Z,1.80
2022-12-08T02:00:19.770Z,1.80
2022-12-08T02:03:16.644Z,1.60
2022-12-08T02:08:45.625Z,1.20
2022-12-08T02:11:21.999Z,1.30
2022-12-08T02:13:58.730Z,1.30
2022-12-08T02:16:49.528Z,1.30
2022-12-08T02:24:50.777Z,1.50
2022-12-08T02:27:50.217Z,1.90
2022-12-08T02:31:05.558Z,1.80
2022-12-08T02:34:03.207Z,1.80
2022-12-08T02:37:17.442Z,1.50
2022-12-08T02:51:23.085Z,1.00
2022-12-08T02:53:58.666Z,0.90
2022-12-08T02:57:28.043Z,0.80
2022-12-08T03:00:27.973Z,0.80
2022-12-08T03:31:42.193Z,0.90
2022-12-08T03:57:17.335Z,0.90
2022-12-08T04:19:01.494Z,0.80
2022-12-08T04:32:50.361Z,0.90
2022-12-08T04:38:12.314Z,1.00
2022-12-08T04:40:40.992Z,0.90
2022-12-08T04:43:09.183Z,1.00
2022-12-08T04:45:50.872Z,0.90
2022-12-08T04:48:45.119Z,0.90
2022-12-08T04:51:19.458Z,0.90
2022-12-08T05:00:04.977Z,0.80
2022-12-08T05:02:34.832Z,0.70
2022-12-08T06:06:25.947Z,1.60
2022-12-08T06:09:17.114Z,1.60
2022-12-08T07:07:28.183Z,1.00
2022-12-08T07:10:00.758Z,0.70
2022-12-08T07:12:35.755Z,0.60
2022-12-08T07:15:04.866Z,0.60
2022-12-08T07:17:33.152Z,0.80
2022-12-08T07:20:02.728Z,0.90
2022-12-08T07:22:43.989Z,1.10
2022-12-08T07:25:25.252Z,1.30
2022-12-08T07:56:23.394Z,1.80
2022-12-08T07:59:00.241Z,1.80
2022-12-08T08:06:00.186Z,2.20
2022-12-08T08:12:33.723Z,2.20
2022-12-08T08:15:40.230Z,2.30
2022-12-08T08:19:17.210Z,2.20
2022-12-08T08:37:09.609Z,3.80
2022-12-08T08:52:13.805Z,3.10
2022-12-08T08:54:46.059Z,3.30
2022-12-08T08:57:13.784Z,3.50
2022-12-08T08:59:50.224Z,3.70
2022-12-08T09:02:19.513Z,3.90
2022-12-08T09:04:59.766Z,3.90
2022-12-08T09:07:46.649Z,3.80
2022-12-08T09:10:14.542Z,3.80
2022-12-08T09:12:42.114Z,4.00
2022-12-08T09:15:16.317Z,4.20
2022-12-08T09:17:43.931Z,4.50
2022-12-08T09:20:17.278Z,4.90
2022-12-08T09:22:45.044Z,5.20
2022-12-08T09:25:12.574Z,5.70
2022-12-08T09:27:40.163Z,6.20
2022-12-08T09:30:08.929Z,6.30
2022-12-08T09:32:36.654Z,6.20
2022-12-08T09:35:04.641Z,6.60
2022-12-08T09:37:32.458Z,6.80
2022-12-08T09:40:00.188Z,6.70
2022-12-08T09:42:51.522Z,6.30
2022-12-08T09:45:20.232Z,6.10
2022-12-08T09:47:53.918Z,5.90
2022-12-08T09:50:34.271Z,6.10
2022-12-08T09:53:35.523Z,6.30
2022-12-08T09:56:12.407Z,6.10
2022-12-08T09:58:57.575Z,5.90
2022-12-08T10:01:32.969Z,5.80
2022-12-08T10:04:01.812Z,6.10
2022-12-08T10:06:40.818Z,6.20
2022-12-08T10:09:30.380Z,6.10
2022-12-08T10:12:00.645Z,6.20
2022-12-08T10:14:50.026Z,6.30
2022-12-08T10:17:28.700Z,6.50
2022-12-08T10:20:07.033Z,6.60
2022-12-08T10:22:45.049Z,6.60
2022-12-08T10:25:18.236Z,6.60
2022-12-08T10:27:49.951Z,6.80
2022-12-08T10:30:19.867Z,6.90
2022-12-08T10:32:51.267Z,6.80
2022-12-08T10:35:23.950Z,6.80
2022-12-08T10:38:02.383Z,6.80
2022-12-08T10:40:39.245Z,6.90
2022-12-08T10:43:52.829Z,7.00
2022-12-08T10:46:38.367Z,7.10
2022-12-08T10:49:06.434Z,6.90
2022-12-08T10:51:34.030Z,6.90
2022-12-08T10:54:05.816Z,7.00
2022-12-08T10:56:34.021Z,7.00
2022-12-08T10:59:20.318Z,7.10
2022-12-08T11:01:54.813Z,7.20
2022-12-08T11:04:44.727Z,7.20
2022-12-08T11:07:23.176Z,7.20
2022-12-08T11:09:57.601Z,7.20
2022-12-08T11:12:29.954Z,7.30
2022-12-08T11:15:03.393Z,7.50
2022-12-08T11:17:41.401Z,7.60
2022-12-08T11:20:16.715Z,7.70
2022-12-08T11:22:55.805Z,7.90
2022-12-08T11:25:26.106Z,7.80
2022-12-08T11:27:58.086Z,7.80
2022-12-08T11:30:30.992Z,7.90
2022-12-08T11:33:21.372Z,7.90
2022-12-08T11:35:57.908Z,8.00
2022-12-08T11:38:27.378Z,7.90
2022-12-08T11:41:01.195Z,7.80
2022-12-08T11:43:35.026Z,7.80
2022-12-08T11:46:17.900Z,7.90
2022-12-08T11:48:48.979Z,8.10
2022-12-08T11:51:37.447Z,8.30
2022-12-08T11:54:43.299Z,8.30
2022-12-08T11:57:20.737Z,8.10
2022-12-08T11:59:54.720Z,8.30
2022-12-08T12:02:31.634Z,8.30
2022-12-08T12:05:55.367Z,8.30
2022-12-08T12:08:26.560Z,8.30
2022-12-08T12:11:12.880Z,8.10
2022-12-08T12:14:06.065Z,7.70
2022-12-08T12:16:42.672Z,7.60
2022-12-08T12:19:19.549Z,7.30
2022-12-08T12:21:51.513Z,7.10
2022-12-08T12:24:36.169Z,7.10
2022-12-08T12:27:15.896Z,7.20
2022-12-08T12:30:02.408Z,7.30
2022-12-08T12:32:45.632Z,7.30
2022-12-08T12:35:37.161Z,7.60
2022-12-08T12:38:54.463Z,7.60
2022-12-08T12:41:28.003Z,7.70
2022-12-08T12:44:14.017Z,7.70
2022-12-08T12:46:41.467Z,7.70
2022-12-08T12:49:40.309Z,7.70
2022-12-08T12:52:16.637Z,7.80
2022-12-08T12:54:51.111Z,7.80
2022-12-08T12:57:18.472Z,7.90
2022-12-08T13:00:05.519Z,7.90
2022-12-08T13:02:36.496Z,7.80
2022-12-08T13:05:27.043Z,7.80
2022-12-08T13:07:59.170Z,7.80
2022-12-08T13:10:29.575Z,7.70
2022-12-08T13:13:12.822Z,7.60
2022-12-08T13:15:48.807Z,7.60
2022-12-08T13:18:28.593Z,7.60
2022-12-08T13:21:22.663Z,7.60
2022-12-08T13:24:18.150Z,7.60
2022-12-08T13:27:04.199Z,7.70
2022-12-08T13:29:37.429Z,7.60
2022-12-08T13:32:08.245Z,7.50
2022-12-08T13:34:47.085Z,7.50
2022-12-08T13:37:23.625Z,7.50
2022-12-08T13:40:05.692Z,7.50
2022-12-08T13:42:43.187Z,7.60
2022-12-08T13:45:40.083Z,7.60
2022-12-08T13:49:09.677Z,7.60
2022-12-08T13:55:49.804Z,7.50
2022-12-08T13:57:29.110Z,7.60
2022-12-08T14:00:07.307Z,7.70
2022-12-08T14:02:47.693Z,7.80
2022-12-08T14:05:20.614Z,7.80
2022-12-08T14:07:56.941Z,8.00
2022-12-08T14:10:33.423Z,8.00
2022-12-08T14:13:08.778Z,7.90
2022-12-08T14:15:38.635Z,7.90
2022-12-08T14:18:21.615Z,7.80
2022-12-08T14:21:20.854Z,7.90
2022-12-08T14:23:49.603Z,9.30
2022-12-08T14:26:18.077Z,8.80
2022-12-08T14:28:47.290Z,8.40
2022-12-08T14:31:16.966Z,8.30
2022-12-08T14:33:44.685Z,9.80
2022-12-08T14:36:21.430Z,9.80
2022-12-08T14:38:52.930Z,9.40
2022-12-08T14:41:28.224Z,8.80
2022-12-08T14:44:01.312Z,8.30
2022-12-08T14:46:30.062Z,7.90
2022-12-08T14:49:04.642Z,7.70
2022-12-08T14:51:34.084Z,7.50
2022-12-08T14:54:09.694Z,7.40
2022-12-08T14:56:52.266Z,7.20
2022-12-08T14:59:23.043Z,7.10
2022-12-08T15:01:53.639Z,7.00
2022-12-08T15:04:28.498Z,6.80
2022-12-08T15:07:15.344Z,6.70
2022-12-08T15:09:47.304Z,6.50
2022-12-08T15:12:14.871Z,6.40
2022-12-08T15:15:10.009Z,6.20
2022-12-08T15:17:40.637Z,6.10
2022-12-08T15:20:34.981Z,6.00
2022-12-08T15:23:03.116Z,5.80
2022-12-08T15:25:35.915Z,5.80
2022-12-08T15:28:16.572Z,5.70
2022-12-08T15:30:44.229Z,5.60
2022-12-08T15:33:11.759Z,5.60
2022-12-08T15:35:41.125Z,5.60
2022-12-08T15:38:23.485Z,5.60
2022-12-08T15:40:55.107Z,5.40
2022-12-08T15:43:24.885Z,5.30
2022-12-08T15:45:59.484Z,5.30
2022-12-08T15:48:30.067Z,5.50
2022-12-08T15:50:58.271Z,5.40
2022-12-08T15:53:26.092Z,5.30
2022-12-08T15:56:25.723Z,5.20
2022-12-08T15:58:57.953Z,5.20
2022-12-08T16:01:26.152Z,5.20
2022-12-08T16:09:40.174Z,5.00
2022-12-08T16:15:53.399Z,5.10
2022-12-08T16:18:24.943Z,5.10
2022-12-08T16:23:43.694Z,4.90
2022-12-08T16:27:22.144Z,4.90
2022-12-08T16:29:20.038Z,4.90
2022-12-08T16:31:47.886Z,5.00
2022-12-08T16:34:15.664Z,4.90
2022-12-08T16:36:43.368Z,5.10
2022-12-08T16:39:13.228Z,5.20
2022-12-08T16:42:05.649Z,5.20
2022-12-08T16:44:33.660Z,5.20
2022-12-08T16:47:10.643Z,5.20
2022-12-08T16:49:51.204Z,5.30
2022-12-08T16:52:31.334Z,5.30
2022-12-08T16:55:08.146Z,5.30
2022-12-08T16:57:40.373Z,5.30
2022-12-08T17:00:17.528Z,5.40
2022-12-08T17:03:03.793Z,5.40
2022-12-08T17:05:39.645Z,5.40
2022-12-08T17:08:14.168Z,5.40
2022-12-08T17:10:46.041Z,5.40
2022-12-08T17:13:17.887Z,5.30
2022-12-08T17:16:01.029Z,5.10
2022-12-08T17:18:32.084Z,5.20
2022-12-08T17:21:00.030Z,5.00
2022-12-08T17:23:36.948Z,4.90
2022-12-08T17:26:05.728Z,4.90
2022-12-08T17:28:59.600Z,5.00
2022-12-08T17:31:33.457Z,5.00
2022-12-08T17:34:06.272Z,4.90
2022-12-08T17:37:02.603Z,4.90
2022-12-08T17:39:44.862Z,4.90
2022-12-08T17:42:17.384Z,5.10
2022-12-08T17:44:54.585Z,5.00
2022-12-08T17:47:23.504Z,5.00
2022-12-08T17:49:56.190Z,5.10
2022-12-08T17:52:24.008Z,5.10
2022-12-08T17:54:56.000Z,5.20
2022-12-08T17:57:34.887Z,5.30
2022-12-08T18:00:12.746Z,5.20
2022-12-08T18:02:46.968Z,5.20
2022-12-08T18:05:27.770Z,5.30
2022-12-08T18:08:36.965Z,5.20
2022-12-08T18:11:23.074Z,5.30
2022-12-08T18:14:01.756Z,5.30
2022-12-08T18:16:43.066Z,5.30
2022-12-08T18:19:29.153Z,5.20
2022-12-08T18:22:00.133Z,5.30
2022-12-08T18:24:31.928Z,5.20
2022-12-08T18:26:59.580Z,5.30
2022-12-08T18:29:27.583Z,5.50
2022-12-08T18:31:55.136Z,5.50
2022-12-08T18:34:23.001Z,5.60
2022-12-08T18:36:50.636Z,5.70
2022-12-08T18:42:31.729Z,5.70
2022-12-08T18:45:08.777Z,5.80
2022-12-08T18:47:43.678Z,5.90
2022-12-08T18:50:11.874Z,5.90
2022-12-08T18:52:40.965Z,5.80
2022-12-08T18:55:09.346Z,5.70
2022-12-08T18:57:38.731Z,5.70
2022-12-08T19:00:08.235Z,5.70
2022-12-08T19:02:37.342Z,5.70
2022-12-08T19:05:06.557Z,5.60
2022-12-08T19:07:34.553Z,5.70
2022-12-08T19:10:02.338Z,5.80
2022-12-08T19:12:30.027Z,6.00
2022-12-08T19:14:58.013Z,6.00
2022-12-08T19:17:26.041Z,6.00
2022-12-08T19:19:53.673Z,5.70
2022-12-08T19:22:21.186Z,5.70
2022-12-08T19:24:49.072Z,5.80
2022-12-08T19:27:17.062Z,5.90
2022-12-08T19:29:44.554Z,5.80
2022-12-08T19:32:12.438Z,5.60
2022-12-08T19:34:40.068Z,5.60
2022-12-08T19:37:09.071Z,5.70
2022-12-08T19:39:55.141Z,5.60
2022-12-08T19:42:41.054Z,5.60
2022-12-08T19:45:13.324Z,5.70
2022-12-08T19:47:41.359Z,5.80
2022-12-08T19:50:29.309Z,5.80
2022-12-08T19:52:57.093Z,5.80
2022-12-08T19:55:25.349Z,5.90
2022-12-08T19:57:53.720Z,6.00
2022-12-08T20:00:21.961Z,6.10
2022-12-08T20:02:50.021Z,6.10
2022-12-08T20:05:17.771Z,6.20
2022-12-08T20:07:45.495Z,6.20
2022-12-08T20:10:19.829Z,6.20
2022-12-08T20:12:47.544Z,6.20
2022-12-08T20:15:15.140Z,6.20
2022-12-08T20:17:43.195Z,6.10
2022-12-08T20:20:13.164Z,6.20
2022-12-08T20:22:45.356Z,6.20
2022-12-08T20:25:13.427Z,6.20
2022-12-08T20:27:41.831Z,6.20
2022-12-08T20:30:16.474Z,6.20
2022-12-08T20:32:45.043Z,6.20
2022-12-08T20:35:13.052Z,6.10
2022-12-08T20:37:40.590Z,6.10
2022-12-08T20:40:08.844Z,6.10
2022-12-08T20:42:36.354Z,6.10
2022-12-08T20:45:06.724Z,6.00
2022-12-08T20:47:34.541Z,6.00
2022-12-08T20:50:03.833Z,5.90
2022-12-08T20:52:32.242Z,5.90
2022-12-08T20:54:59.877Z,5.80
2022-12-08T20:57:27.872Z,5.80
2022-12-08T20:59:56.081Z,5.80
2022-12-08T21:02:23.736Z,5.80
2022-12-08T21:04:51.422Z,5.80
2022-12-08T21:07:19.163Z,5.80
2022-12-08T21:09:46.932Z,5.90
2022-12-08T21:12:14.787Z,5.90
2022-12-08T21:14:42.398Z,6.00
2022-12-08T21:17:10.252Z,5.90
2022-12-08T21:19:38.292Z,6.00
2022-12-08T21:22:06.196Z,6.00
2022-12-08T21:24:34.823Z,6.00
2022-12-08T21:27:02.640Z,5.90
2022-12-08T21:29:30.222Z,5.90
2022-12-08T21:31:58.929Z,6.00
2022-12-08T21:34:31.971Z,6.00
2022-12-08T21:37:00.327Z,5.90
2022-12-08T21:39:28.268Z,5.80
2022-12-08T21:42:14.652Z,5.70
2022-12-08T21:44:42.368Z,5.60
2022-12-08T21:47:10.350Z,5.60
2022-12-08T21:49:38.241Z,5.60
2022-12-08T21:52:05.936Z,5.60
2022-12-08T21:54:33.756Z,5.60
2022-12-08T21:57:01.399Z,5.60
2022-12-08T21:59:29.063Z,5.60
2022-12-08T22:01:56.853Z,5.70
2022-12-08T22:04:25.637Z,5.80
2022-12-08T22:06:53.349Z,5.80
2022-12-08T22:09:21.155Z,5.90
2022-12-08T22:11:48.933Z,6.00
2022-12-08T22:14:16.775Z,6.00
2022-12-08T22:16:44.819Z,6.10
2022-12-08T22:19:13.578Z,6.00
2022-12-08T22:21:42.081Z,6.00
2022-12-08T22:24:10.226Z,6.00
2022-12-08T22:26:38.281Z,6.10
2022-12-08T22:29:06.369Z,6.10
2022-12-08T22:31:34.307Z,6.10
2022-12-08T22:34:01.961Z,6.10
2022-12-08T22:36:29.990Z,6.10
2022-12-08T22:39:00.278Z,6.20
2022-12-08T22:41:28.040Z,6.20
2022-12-08T22:43:55.787Z,6.20
2022-12-08T22:46:27.989Z,6.20
2022-12-08T22:48:59.177Z,6.00
2022-12-08T22:51:33.195Z,6.00
2022-12-08T22:54:20.941Z,5.90
2022-12-08T22:56:55.877Z,5.80
2022-12-08T22:59:23.901Z,5.80
2022-12-08T23:01:56.880Z,5.70
2022-12-08T23:04:26.708Z,5.80
2022-12-08T23:06:54.746Z,5.80
2022-12-08T23:09:22.616Z,5.80
2022-12-08T23:11:51.153Z,5.90
2022-12-08T23:14:19.080Z,5.80
2022-12-08T23:19:28.747Z,5.80
2022-12-08T23:21:56.718Z,5.90
2022-12-08T23:24:33.411Z,5.80
2022-12-08T23:27:09.721Z,5.80
2022-12-08T23:29:56.337Z,5.80
2022-12-08T23:32:29.566Z,5.90
2022-12-08T23:35:33.183Z,5.80
2022-12-08T23:38:45.542Z,5.80
2022-12-08T23:41:16.129Z,5.60
2022-12-08T23:43:53.297Z,5.50
2022-12-08T23:46:26.935Z,5.40
2022-12-08T23:49:03.479Z,5.50
2022-12-08T23:51:31.594Z,5.60
2022-12-08T23:57:08.825Z,5.70
2022-12-08T23:59:37.315Z,5.70
